Time;durP1;ratioP1;P1;durP2;ratioP2;P2;SDS_P1;SDS_P2;PMS_P1;PMS_P2;Temp;Humidity;BMP_temperature;BMP_pressure;BME280_temperature;BME280_humidity;BME280_pressure;Samples;Min_cycle;Max_cycle;Signal;HPM_P1;HPM_P2
2024/02/16 00:00:59;;;;;;;4.40;3.70;;;;;;;10.90;99.23;154159.78;5113157;28;21020;-89
2024/02/16 00:03:26;;;;;;;4.40;3.67;;;;;;;10.92;99.38;154163.66;5128594;27;20538;-89
2024/02/16 00:05:53;;;;;;;5.10;3.93;;;;;;;10.94;98.83;154168.81;5115434;27;20450;-90
2024/02/16 00:08:20;;;;;;;5.00;3.80;;;;;;;10.96;98.90;154175.31;5148592;27;20437;-89
2024/02/16 00:10:47;;;;;;;5.03;4.07;;;;;;;10.97;98.73;154177.91;5153854;27;20441;-89
2024/02/16 00:13:14;;;;;;;4.30;3.70;;;;;;;10.99;98.07;154183.09;5146959;27;20447;-89
2024/02/16 00:15:41;;;;;;;4.17;3.53;;;;;;;11.05;98.42;154196.03;5131802;27;20462;-90
2024/02/16 00:18:07;;;;;;;6.00;4.13;;;;;;;11.02;98.40;154190.84;5132117;27;20922;-90
2024/02/16 00:20:34;;;;;;;4.67;4.10;;;;;;;11.05;97.11;154196.03;5131926;27;20451;-89
2024/02/16 00:23:01;;;;;;;4.97;4.27;;;;;;;11.05;97.44;154196.03;5132022;27;20435;-89
2024/02/16 00:25:27;;;;;;;4.57;4.07;;;;;;;11.07;98.33;154201.25;5131240;27;20787;-90
2024/02/16 00:27:55;;;;;;;5.07;4.30;;;;;;;11.07;98.93;154201.25;5131590;27;21062;-90
2024/02/16 00:30:23;;;;;;;4.87;4.30;;;;;;;11.04;97.82;154193.47;5133647;27;20488;-90
2024/02/16 00:32:49;;;;;;;5.73;3.60;;;;;;;11.04;98.08;154194.72;5131685;27;20475;-90
2024/02/16 00:35:17;;;;;;;4.70;3.87;;;;;;;11.00;97.24;154185.69;5133484;27;20518;-90
2024/02/16 00:37:45;;;;;;;11.30;3.83;;;;;;;11.02;97.22;154189.56;5112288;27;20456;-90
2024/02/16 00:40:12;;;;;;;6.83;3.70;;;;;;;11.02;96.82;154190.84;5125020;27;20443;-89
2024/02/16 00:42:39;;;;;;;4.73;3.90;;;;;;;11.02;97.38;154190.84;5133133;27;20447;-90
2024/02/16 00:45:08;;;;;;;3.80;3.40;;;;;;;11.01;98.73;154188.25;5133114;27;20890;-89
2024/02/16 00:47:35;;;;;;;4.43;3.87;;;;;;;10.98;97.54;154180.53;5114148;27;20440;-89
2024/02/16 00:50:03;;;;;;;4.10;3.47;;;;;;;10.99;97.14;154183.09;5133197;27;20432;-89
2024/02/16 00:52:29;;;;;;;3.87;3.50;;;;;;;11.00;97.76;154184.38;5127787;27;20467;-89
2024/02/16 00:54:56;;;;;;;4.37;3.97;;;;;;;10.97;96.47;154177.91;5124824;27;20454;-90
2024/02/16 00:57:22;;;;;;;4.40;3.27;;;;;;;10.99;96.98;154183.09;5133880;27;20459;-89
2024/02/16 00:59:49;;;;;;;4.47;3.43;;;;;;;10.99;96.54;154183.09;5131270;27;20852;-89
2024/02/16 01:02:17;;;;;;;4.90;3.30;;;;;;;11.00;96.39;154185.69;5132917;27;20493;-89
2024/02/16 01:04:43;;;;;;;3.40;2.93;;;;;;;11.00;97.21;154184.38;5130663;27;20980;-89
2024/02/16 01:07:10;;;;;;;3.87;3.47;;;;;;;11.00;97.96;154185.69;5132407;27;20450;-89
2024/02/16 01:09:36;;;;;;;5.70;3.83;;;;;;;10.99;98.52;154181.78;5132589;27;20435;-89
2024/02/16 01:12:03;;;;;;;4.03;3.20;;;;;;;10.97;97.57;154177.91;5131172;27;20900;-88
2024/02/16 01:14:29;;;;;;;4.77;3.83;;;;;;;10.97;98.23;154177.91;5121452;27;20468;-89
2024/02/16 01:16:56;;;;;;;3.90;3.13;;;;;;;10.95;98.21;154171.44;5132092;27;20432;-89
2024/02/16 01:19:24;;;;;;;4.10;3.67;;;;;;;10.96;97.82;154174.06;5132397;27;20443;-89
2024/02/16 01:21:52;;;;;;;4.53;3.57;;;;;;;10.98;98.10;154180.53;5132518;27;20423;-89
2024/02/16 01:24:19;;;;;;;4.40;3.30;;;;;;;10.99;98.22;154183.09;5127343;27;20509;-89
2024/02/16 01:26:46;;;;;;;4.53;3.20;;;;;;;10.99;98.32;154183.09;5130331;27;20439;-87
2024/02/16 01:29:13;;;;;;;3.57;3.13;;;;;;;10.97;97.51;154176.59;5142649;27;20923;-89
2024/02/16 01:31:39;;;;;;;4.10;3.60;;;;;;;10.99;96.55;154183.09;5126832;27;20490;-90
2024/02/16 01:34:06;;;;;;;3.40;2.90;;;;;;;11.00;95.75;154185.69;5130256;27;20824;-89
2024/02/16 01:36:34;;;;;;;3.30;2.93;;;;;;;11.00;95.50;154185.69;5130745;27;20945;-89
2024/02/16 01:39:01;;;;;;;5.07;3.10;;;;;;;11.04;95.75;154193.47;5126289;27;20819;-89
2024/02/16 01:41:27;;;;;;;2.83;2.47;;;;;;;11.04;96.40;154193.47;5130909;27;20946;-89
2024/02/16 01:43:54;;;;;;;4.53;3.20;;;;;;;11.05;96.70;154196.03;5100654;28;20865;-90
2024/02/16 01:46:22;;;;;;;3.43;3.13;;;;;;;11.00;96.92;154185.69;5111413;28;20468;-90
2024/02/16 01:48:50;;;;;;;4.43;3.20;;;;;;;11.02;96.49;154189.56;5117672;27;20451;-89
2024/02/16 01:51:16;;;;;;;4.07;3.03;;;;;;;10.99;97.26;154181.78;5130222;27;20443;-90
2024/02/16 01:53:44;;;;;;;3.70;3.10;;;;;;;10.99;96.96;154183.09;5131968;27;20431;-89
2024/02/16 01:56:11;;;;;;;4.23;3.40;;;;;;;10.96;95.28;154174.06;5131421;27;20444;-88
2024/02/16 01:58:38;;;;;;;5.33;3.30;;;;;;;10.98;95.17;154179.22;5115199;27;20455;-88
2024/02/16 02:01:04;;;;;;;5.07;4.00;;;;;;;10.98;93.70;154179.22;5118956;27;20456;-89
2024/02/16 02:03:31;;;;;;;4.50;3.33;;;;;;;10.98;92.31;154180.53;5129983;27;20440;-89
2024/02/16 02:05:57;;;;;;;4.20;3.30;;;;;;;11.02;93.59;154190.84;5129866;27;20438;-89
2024/02/16 02:08:26;;;;;;;3.87;3.10;;;;;;;11.05;94.28;154196.03;5124938;27;20505;-88
2024/02/16 02:10:53;;;;;;;3.50;3.20;;;;;;;11.02;94.51;154190.84;5115661;27;20454;-89
2024/02/16 02:13:21;;;;;;;3.57;3.10;;;;;;;11.06;95.88;154199.94;5131803;27;21039;-89
2024/02/16 02:15:48;;;;;;;4.90;3.87;;;;;;;11.06;96.25;154198.63;5129912;27;20448;-89
2024/02/16 02:18:15;;;;;;;3.40;3.10;;;;;;;11.07;96.42;154201.25;5131505;27;20427;-90
2024/02/16 02:20:42;;;;;;;4.50;3.37;;;;;;;11.07;97.70;154201.25;5111992;27;20467;-90
2024/02/16 02:23:10;;;;;;;5.10;3.57;;;;;;;11.05;98.25;154196.03;5117721;27;21268;-90
2024/02/16 02:25:37;;;;;;;3.73;3.20;;;;;;;11.04;98.30;154193.47;5109371;28;20469;-89
2024/02/16 02:28:04;;;;;;;4.27;3.70;;;;;;;11.03;99.30;154192.16;5110879;27;20468;-89
2024/02/16 02:30:30;;;;;;;4.40;3.50;;;;;;;11.01;99.48;154187.00;5131333;28;20436;-90
2024/02/16 02:32:57;;;;;;;4.70;4.30;;;;;;;11.01;99.94;154188.25;5129332;28;20459;-90
2024/02/16 02:35:23;;;;;;;4.53;3.53;;;;;;;11.00;99.98;154185.69;5131498;27;20908;-89
2024/02/16 02:37:50;;;;;;;4.83;3.80;;;;;;;10.97;99.96;154177.91;5129918;28;20534;-89
2024/02/16 02:40:18;;;;;;;4.13;3.70;;;;;;;10.96;99.70;154174.06;5129477;28;20447;-89
2024/02/16 02:42:45;;;;;;;4.13;3.63;;;;;;;10.95;99.22;154172.75;5130959;27;20443;-89
2024/02/16 02:45:11;;;;;;;5.70;4.57;;;;;;;10.98;100.00;154180.53;5129717;28;20840;-90
2024/02/16 02:47:38;;;;;;;6.47;4.47;;;;;;;10.99;100.00;154181.78;5131166;27;20484;-88
2024/02/16 02:50:06;;;;;;;5.90;3.60;;;;;;;10.96;100.00;154175.31;5124320;27;20455;-89
2024/02/16 02:52:32;;;;;;;4.03;3.63;;;;;;;10.97;99.90;154176.59;5109012;28;20459;-89
2024/02/16 02:54:59;;;;;;;4.73;4.10;;;;;;;10.96;99.02;154175.31;5108960;28;20868;-89
2024/02/16 02:57:26;;;;;;;4.80;4.10;;;;;;;10.96;99.22;154175.31;5116227;28;20448;-89
2024/02/16 02:59:53;;;;;;;4.10;3.50;;;;;;;10.96;98.65;154175.31;5130646;27;20532;-89
2024/02/16 03:02:19;;;;;;;4.77;3.90;;;;;;;10.96;99.06;154174.06;5130845;28;20427;-89
2024/02/16 03:04:46;;;;;;;3.90;3.53;;;;;;;10.93;98.01;154167.53;5129393;28;21022;-89
2024/02/16 03:07:14;;;;;;;4.03;3.63;;;;;;;10.92;97.75;154164.97;5136162;27;20492;-90
2024/02/16 03:09:41;;;;;;;4.83;4.37;;;;;;;10.93;98.17;154167.53;5143124;27;20508;-89
2024/02/16 03:12:08;;;;;;;5.00;3.57;;;;;;;10.92;98.98;154164.97;5122289;27;20471;-89
2024/02/16 03:14:37;;;;;;;5.07;4.40;;;;;;;10.89;97.98;154157.19;5119033;27;20988;-89
2024/02/16 03:17:04;;;;;;;4.03;3.63;;;;;;;10.87;97.80;154152.03;5134649;27;20416;-89
2024/02/16 03:19:31;;;;;;;4.40;4.00;;;;;;;10.89;97.84;154157.19;5133330;27;20459;-89
2024/02/16 03:21:58;;;;;;;4.07;3.60;;;;;;;10.87;97.80;154152.03;5131329;27;20443;-89
2024/02/16 03:24:25;;;;;;;8.10;3.20;;;;;;;10.88;97.93;154154.56;5112670;28;20538;-89
2024/02/16 03:26:51;;;;;;;5.20;4.23;;;;;;;10.88;97.53;154153.31;5131612;27;20442;-89
2024/02/16 03:29:18;;;;;;;3.90;3.50;;;;;;;10.91;98.81;154162.34;5115817;27;20512;-89
2024/02/16 03:31:46;;;;;;;3.43;3.10;;;;;;;10.88;99.02;154153.31;5115237;27;20450;-89
2024/02/16 03:34:13;;;;;;;4.00;3.60;;;;;;;10.88;98.32;154154.56;5132125;27;20512;-90
2024/02/16 03:36:39;;;;;;;4.20;3.57;;;;;;;10.91;99.10;154162.34;5115993;27;20461;-89
2024/02/16 03:39:08;;;;;;;6.40;4.53;;;;;;;10.90;99.32;154158.50;5132999;27;20815;-90
2024/02/16 03:41:35;;;;;;;5.10;3.53;;;;;;;10.89;99.31;154155.88;5134015;27;20439;-89
2024/02/16 03:44:01;;;;;;;4.83;3.80;;;;;;;10.86;98.56;154149.41;5120486;27;20501;-90
2024/02/16 03:46:28;;;;;;;4.07;3.77;;;;;;;10.88;98.95;154153.31;5112682;28;20452;-90
2024/02/16 03:48:56;;;;;;;4.63;4.20;;;;;;;10.84;98.82;154142.94;5119670;27;20466;-89
2024/02/16 03:51:23;;;;;;;6.10;4.57;;;;;;;10.79;98.73;154131.28;5134802;27;20439;-90
2024/02/16 03:53:49;;;;;;;4.80;4.03;;;;;;;10.74;98.07;154117.03;5134071;27;20475;-89
2024/02/16 03:56:19;;;;;;;7.37;4.87;;;;;;;10.72;97.91;154111.88;5132690;27;20538;-90
2024/02/16 03:58:46;;;;;;;4.70;4.13;;;;;;;10.71;98.22;154110.56;5114705;27;20455;-89
2024/02/16 04:01:13;;;;;;;5.10;4.60;;;;;;;10.71;98.83;154110.56;5115401;27;20480;-90
2024/02/16 04:03:39;;;;;;;5.20;4.30;;;;;;;10.72;100.00;154113.13;5123092;27;20434;-89
2024/02/16 04:06:08;;;;;;;5.20;4.10;;;;;;;10.66;100.00;154097.63;5145536;27;20565;-90
2024/02/16 04:08:34;;;;;;;7.90;5.20;;;;;;;10.67;100.00;154100.19;5135475;27;20447;-90
2024/02/16 04:11:01;;;;;;;4.53;4.10;;;;;;;10.64;100.00;154091.16;5132975;27;20440;-89
2024/02/16 04:13:27;;;;;;;5.63;4.80;;;;;;;10.60;100.00;154082.06;5132047;27;20470;-89
2024/02/16 04:15:54;;;;;;;5.00;4.30;;;;;;;10.60;100.00;154082.06;5132039;27;20912;-89
2024/02/16 04:18:20;;;;;;;6.40;4.90;;;;;;;10.61;100.00;154084.69;5131996;27;20450;-89
2024/02/16 04:20:47;;;;;;;6.20;4.63;;;;;;;10.61;100.00;154083.38;5133351;27;20526;-89
2024/02/16 04:23:15;;;;;;;4.03;3.60;;;;;;;10.59;100.00;154079.47;5133574;27;20940;-90
2024/02/16 04:25:42;;;;;;;5.00;4.50;;;;;;;10.59;100.00;154079.47;5131940;27;20439;-89
2024/02/16 04:28:09;;;;;;;5.27;4.77;;;;;;;10.54;100.00;154066.53;5133041;27;20475;-89
2024/02/16 04:30:36;;;;;;;5.57;5.00;;;;;;;10.59;100.00;154078.22;5133663;27;20443;-89
2024/02/16 04:33:04;;;;;;;5.13;4.30;;;;;;;10.59;100.00;154078.22;5132073;27;20467;-88
2024/02/16 04:35:30;;;;;;;5.20;4.70;;;;;;;10.59;100.00;154079.47;5131668;27;20443;-89
2024/02/16 04:38:00;;;;;;;8.70;5.90;;;;;;;10.55;100.00;154069.13;5114950;27;20459;-89
2024/02/16 04:40:27;;;;;;;6.60;5.20;;;;;;;10.52;100.00;154061.34;5142332;27;20436;-89
2024/02/16 04:42:54;;;;;;;5.67;4.77;;;;;;;10.50;100.00;154054.88;5134469;27;20430;-89
2024/02/16 04:45:21;;;;;;;7.63;5.87;;;;;;;10.49;100.00;154053.59;5134917;27;20435;-89
2024/02/16 04:47:48;;;;;;;7.10;5.33;;;;;;;10.47;100.00;154048.41;5152493;27;20435;-89
2024/02/16 04:50:15;;;;;;;5.03;4.53;;;;;;;10.45;100.00;154043.25;5139289;27;20449;-89
2024/02/16 04:52:43;;;;;;;10.83;5.70;;;;;;;10.44;100.00;154040.63;5123717;27;20476;-88
2024/02/16 04:55:10;;;;;;;7.50;5.63;;;;;;;10.42;100.00;154035.47;5131318;27;20500;-89
2024/02/16 04:57:38;;;;;;;7.20;5.53;;;;;;;10.43;100.00;154038.09;5133215;27;20438;-88
2024/02/16 05:00:05;;;;;;;6.70;5.30;;;;;;;10.36;100.00;154021.22;5132896;27;20435;-89
2024/02/16 05:02:32;;;;;;;5.93;5.33;;;;;;;10.34;100.00;154014.75;5132939;27;20449;-89
2024/02/16 05:04:59;;;;;;;5.63;5.00;;;;;;;10.34;100.00;154014.75;5131299;27;20439;-88
2024/02/16 05:07:25;;;;;;;7.83;5.53;;;;;;;10.33;100.00;154013.47;5131179;27;20495;-89
2024/02/16 05:09:55;;;;;;;7.47;5.93;;;;;;;10.31;100.00;154008.28;5132862;27;20990;-89
2024/02/16 05:12:22;;;;;;;6.47;5.30;;;;;;;10.30;100.00;154004.38;5116597;27;20452;-89
2024/02/16 05:14:51;;;;;;;7.80;5.20;;;;;;;10.28;100.00;153999.22;5112328;28;20529;-89
2024/02/16 05:17:19;;;;;;;5.87;5.30;;;;;;;10.25;100.00;153992.75;5115022;27;20450;-88
2024/02/16 05:19:45;;;;;;;7.40;5.87;;;;;;;10.26;100.00;153994.03;5132503;27;20847;-88
2024/02/16 05:22:12;;;;;;;7.70;5.83;;;;;;;10.22;100.00;153983.66;5131852;27;20534;-89
2024/02/16 05:24:38;;;;;;;5.63;5.00;;;;;;;10.21;100.00;153982.41;5126333;27;20520;-88
2024/02/16 05:27:05;;;;;;;5.87;5.20;;;;;;;10.21;100.00;153981.09;5101623;28;20822;-89
2024/02/16 05:29:32;;;;;;;6.10;5.50;;;;;;;10.20;100.00;153979.81;5132344;27;20434;-88
2024/02/16 05:32:00;;;;;;;6.33;4.97;;;;;;;10.23;100.00;153986.28;5136619;27;20861;-88
2024/02/16 05:34:26;;;;;;;6.87;6.10;;;;;;;10.22;100.00;153984.97;5112281;27;20478;-88
2024/02/16 05:36:53;;;;;;;6.00;5.40;;;;;;;10.23;100.00;153986.28;5133882;27;20439;-88
2024/02/16 05:39:26;;;;;;;6.07;5.47;;;;;;;10.24;100.00;153990.19;5134534;27;20901;-88
2024/02/16 05:41:54;;;;;;;6.10;4.60;;;;;;;10.23;100.00;153986.28;5131864;27;20419;-88
2024/02/16 05:44:20;;;;;;;6.17;5.57;;;;;;;10.24;100.00;153990.19;5123170;27;21030;-89
2024/02/16 05:46:47;;;;;;;6.60;5.03;;;;;;;10.24;100.00;153988.88;5116788;27;20458;-88
2024/02/16 05:49:15;;;;;;;5.30;4.80;;;;;;;10.25;100.00;153991.44;5129456;27;20474;-88
2024/02/16 05:51:42;;;;;;;10.73;5.30;;;;;;;10.23;100.00;153986.28;5130400;27;20443;-88
2024/02/16 05:54:10;;;;;;;6.27;5.00;;;;;;;10.22;100.00;153983.66;5145436;27;20477;-89
2024/02/16 05:56:40;;;;;;;7.30;5.70;;;;;;;10.20;100.00;153979.81;5127082;27;20442;-88
2024/02/16 05:59:07;;;;;;;5.67;4.80;;;;;;;10.22;100.00;153983.66;5133840;27;20445;-89
2024/02/16 06:01:33;;;;;;;6.00;5.40;;;;;;;10.21;100.00;153982.41;5128902;27;20451;-89
2024/02/16 06:04:00;;;;;;;6.27;5.10;;;;;;;10.20;100.00;153979.81;5129290;27;20451;-89
2024/02/16 06:06:28;;;;;;;5.90;5.30;;;;;;;10.19;100.00;153975.94;5138269;27;20438;-89
2024/02/16 06:08:54;;;;;;;6.63;5.77;;;;;;;10.17;100.00;153970.72;5140521;27;20471;-89
2024/02/16 06:11:21;;;;;;;8.37;6.10;;;;;;;10.16;100.00;153968.16;5137550;27;20439;-89
2024/02/16 06:13:47;;;;;;;6.47;5.77;;;;;;;10.14;100.00;153964.25;5125446;27;20478;-89
2024/02/16 06:16:14;;;;;;;6.90;6.20;;;;;;;10.14;100.00;153963.00;5129382;27;20477;-88
2024/02/16 06:18:41;;;;;;;8.33;6.47;;;;;;;10.13;100.00;153960.41;5124291;27;20514;-88
2024/02/16 06:21:08;;;;;;;12.50;5.50;;;;;;;10.12;100.00;153957.72;5149955;27;20442;-89
2024/02/16 06:23:36;;;;;;;6.93;5.43;;;;;;;10.11;100.00;153955.19;5127341;27;20964;-89
2024/02/16 06:26:03;;;;;;;7.60;6.33;;;;;;;10.10;100.00;153952.56;5119874;27;20442;-89
2024/02/16 06:28:29;;;;;;;6.50;5.20;;;;;;;10.10;100.00;153952.56;5129631;27;20493;-89
2024/02/16 06:30:59;;;;;;;7.00;5.60;;;;;;;10.10;100.00;153952.56;5113034;27;20497;-89
2024/02/16 06:33:25;;;;;;;8.80;5.83;;;;;;;10.08;100.00;153947.41;5111864;28;20463;-89
2024/02/16 06:35:52;;;;;;;6.00;5.40;;;;;;;10.07;100.00;153944.81;5102082;28;20451;-89
2024/02/16 06:38:21;;;;;;;8.17;6.10;;;;;;;10.07;100.00;153944.81;5108558;28;20540;-89
2024/02/16 06:40:52;;;;;;;6.27;5.60;;;;;;;10.06;100.00;153943.50;5114287;27;20446;-89
2024/02/16 06:43:20;;;;;;;5.47;4.77;;;;;;;10.07;100.00;153946.09;5115111;27;20486;-89
2024/02/16 06:45:46;;;;;;;8.90;5.63;;;;;;;10.04;100.00;153938.34;5116153;27;20459;-87
2024/02/16 06:48:13;;;;;;;5.00;4.50;;;;;;;10.04;100.00;153938.34;5142541;27;20463;-87
2024/02/16 06:50:42;;;;;;;5.60;4.83;;;;;;;10.06;100.00;153942.25;5114254;27;20434;-87
2024/02/16 06:53:09;;;;;;;5.20;4.60;;;;;;;10.07;100.00;153944.81;5117634;27;20447;-87
2024/02/16 06:55:35;;;;;;;5.93;5.33;;;;;;;10.07;100.00;153946.09;5123226;27;20916;-87
2024/02/16 06:58:04;;;;;;;5.53;4.90;;;;;;;10.09;100.00;153949.97;5120385;27;20470;-87
2024/02/16 07:00:30;;;;;;;4.43;4.00;;;;;;;10.12;100.00;153957.72;5114491;27;20516;-87
2024/02/16 07:02:57;;;;;;;6.47;4.40;;;;;;;10.13;100.00;153960.41;5121841;27;20451;-87
2024/02/16 07:05:24;;;;;;;6.00;4.60;;;;;;;10.16;100.00;153969.47;5105330;27;20448;-87
2024/02/16 07:07:50;;;;;;;9.90;5.87;;;;;;;10.16;100.00;153968.16;5117786;27;20462;-87
2024/02/16 07:10:17;;;;;;;6.10;4.07;;;;;;;10.18;100.00;153974.63;5111683;27;20451;-87
2024/02/16 07:12:45;;;;;;;5.87;4.67;;;;;;;10.18;100.00;153973.34;5117674;27;20455;-87
2024/02/16 07:15:16;;;;;;;8.00;5.23;;;;;;;10.18;100.00;153973.34;5105228;27;20562;-87
2024/02/16 07:17:43;;;;;;;7.00;4.77;;;;;;;10.21;100.00;153982.41;5114807;27;20451;-87
2024/02/16 07:20:15;;;;;;;5.53;5.00;;;;;;;10.14;100.00;153963.00;5116496;27;20447;-89
2024/02/16 07:22:42;;;;;;;7.07;4.27;;;;;;;10.21;100.00;153982.41;5098313;28;20476;-90
2024/02/16 07:25:10;;;;;;;6.57;4.50;;;;;;;10.32;100.00;154010.91;5095985;28;20439;-89
2024/02/16 07:27:37;;;;;;;5.50;4.43;;;;;;;10.47;100.00;154048.41;5104678;27;20586;-88
2024/02/16 07:30:05;;;;;;;7.67;4.90;;;;;;;10.73;100.00;154115.75;5116023;27;20446;-88
2024/02/16 07:32:33;;;;;;;5.37;4.37;;;;;;;11.04;99.94;154194.72;5122599;27;20481;-90
2024/02/16 07:35:05;;;;;;;5.77;5.17;;;;;;;11.34;97.69;154271.16;5108894;27;20471;-88
2024/02/16 07:37:32;;;;;;;4.90;4.33;;;;;;;11.52;96.30;154319.09;5124872;27;20960;-87
2024/02/16 07:39:59;;;;;;;5.57;4.10;;;;;;;11.52;93.65;154317.81;5136835;27;20455;-88
2024/02/16 07:42:27;;;;;;;5.03;4.50;;;;;;;11.43;93.86;154294.50;5117477;27;20470;-88
2024/02/16 07:44:56;;;;;;;5.20;4.70;;;;;;;11.33;94.96;154268.59;5138279;27;20478;-87
2024/02/16 07:47:24;;;;;;;6.03;4.43;;;;;;;11.30;95.79;154262.13;5129648;27;20467;-86
2024/02/16 07:49:53;;;;;;;5.50;4.87;;;;;;;11.32;95.84;154266.00;5129690;27;20453;-87
2024/02/16 07:52:19;;;;;;;5.13;4.30;;;;;;;11.27;95.53;154253.03;5127543;27;20498;-87
2024/02/16 07:54:46;;;;;;;7.53;5.70;;;;;;;11.21;94.07;154237.47;5114262;27;20500;-84
2024/02/16 07:57:12;;;;;;;6.33;5.40;;;;;;;11.19;93.97;154233.63;5117601;27;20949;-85
2024/02/16 07:59:40;;;;;;;6.70;5.00;;;;;;;11.24;93.95;154245.25;5131828;27;20501;-89
2024/02/16 08:02:07;;;;;;;7.97;4.90;;;;;;;11.22;94.37;154240.09;5144131;27;20503;-89
2024/02/16 08:04:33;;;;;;;5.20;4.43;;;;;;;11.16;94.76;154225.84;5138697;27;20479;-89
2024/02/16 08:07:01;;;;;;;5.23;4.73;;;;;;;11.14;95.21;154219.38;5142712;27;20459;-89
2024/02/16 08:09:28;;;;;;;6.40;5.07;;;;;;;11.26;95.58;154250.44;5126172;27;20848;-89
2024/02/16 08:11:54;;;;;;;4.80;4.40;;;;;;;11.35;94.53;154273.78;5112453;27;20536;-89
2024/02/16 08:14:21;;;;;;;5.30;4.37;;;;;;;11.57;93.38;154332.06;5147976;27;21013;-89
2024/02/16 08:16:47;;;;;;;7.13;4.97;;;;;;;11.67;92.27;154356.72;5134920;27;20844;-90
2024/02/16 08:19:14;;;;;;;5.97;4.47;;;;;;;11.68;92.12;154357.97;5140198;27;20457;-89
2024/02/16 08:21:41;;;;;;;6.70;4.90;;;;;;;11.71;92.17;154367.09;5142625;27;20538;-89
2024/02/16 08:24:08;;;;;;;5.63;4.80;;;;;;;11.77;91.99;154382.66;5133036;27;20896;-89
2024/02/16 08:26:35;;;;;;;5.10;4.60;;;;;;;11.83;90.66;154398.22;5113504;27;20855;-89
2024/02/16 08:29:01;;;;;;;5.23;4.73;;;;;;;11.95;91.46;154428.00;5114126;27;21101;-89
2024/02/16 08:31:28;;;;;;;6.70;4.57;;;;;;;11.95;92.38;154428.00;5112276;28;20444;-88
2024/02/16 08:33:55;;;;;;;4.80;4.30;;;;;;;11.96;92.33;154431.94;5127760;27;20478;-89
2024/02/16 08:36:27;;;;;;;5.27;4.53;;;;;;;11.99;90.97;154439.66;5139074;27;20475;-89
2024/02/16 08:38:54;;;;;;;5.10;4.03;;;;;;;12.04;90.76;154452.69;5141782;27;20789;-89
2024/02/16 08:41:24;;;;;;;6.80;4.23;;;;;;;12.10;91.39;154466.88;5140278;27;20450;-90
2024/02/16 08:43:51;;;;;;;3.97;3.47;;;;;;;12.19;92.10;154491.56;5133206;27;20443;-90
2024/02/16 08:46:17;;;;;;;4.70;4.30;;;;;;;12.21;89.43;154496.72;5140456;27;20531;-89
2024/02/16 08:48:45;;;;;;;3.73;3.43;;;;;;;12.28;89.92;154512.31;5125902;27;20450;-89
2024/02/16 08:51:11;;;;;;;3.60;3.27;;;;;;;12.32;88.08;154522.66;5115814;27;20447;-89
2024/02/16 08:53:38;;;;;;;4.10;3.70;;;;;;;12.50;87.64;154569.31;5132293;27;20451;-89
2024/02/16 08:56:10;;;;;;;4.60;3.50;;;;;;;12.58;87.57;154590.06;5133163;27;20455;-90
2024/02/16 08:58:38;;;;;;;5.47;3.70;;;;;;;12.68;86.10;154617.31;5125994;27;20455;-90
2024/02/16 09:01:05;;;;;;;5.20;3.50;;;;;;;12.73;86.06;154630.28;5132651;27;20510;-89
2024/02/16 09:03:36;;;;;;;3.63;3.20;;;;;;;12.84;84.30;154657.50;5112626;27;20819;-89
2024/02/16 09:06:03;;;;;;;3.90;2.80;;;;;;;12.94;84.67;154682.19;5132134;27;20458;-89
2024/02/16 09:08:32;;;;;;;4.00;3.00;;;;;;;13.01;83.17;154701.63;5133729;27;20529;-87
2024/02/16 09:11:00;;;;;;;5.20;3.30;;;;;;;13.06;82.88;154714.59;5128645;27;20450;-89
2024/02/16 09:13:26;;;;;;;3.10;2.73;;;;;;;13.15;81.97;154736.72;5130182;27;21018;-89
2024/02/16 09:15:54;;;;;;;4.93;2.97;;;;;;;13.21;82.87;154753.56;5143779;27;20477;-89
2024/02/16 09:18:21;;;;;;;2.90;2.60;;;;;;;13.30;81.93;154776.94;5132237;27;20459;-89
2024/02/16 09:20:50;;;;;;;4.23;2.77;;;;;;;13.47;80.49;154819.78;5127541;27;20459;-89
2024/02/16 09:24:01;;;;;;;3.73;2.63;;;;;;;13.58;79.83;154848.28;5132570;27;21094;-89
2024/02/16 09:26:33;;;;;;;3.90;3.07;;;;;;;13.60;80.76;154853.50;5112926;27;20447;-89
2024/02/16 09:29:02;;;;;;;4.60;2.37;;;;;;;13.74;80.01;154889.81;5140820;27;20562;-88
2024/02/16 09:31:30;;;;;;;5.47;2.60;;;;;;;13.83;79.06;154911.91;5140972;27;21027;-88
2024/02/16 09:33:57;;;;;;;2.33;2.13;;;;;;;13.89;78.79;154927.50;5136515;27;20461;-89
2024/02/16 09:36:24;;;;;;;3.77;2.90;;;;;;;14.06;77.89;154971.59;5140026;27;20454;-89
2024/02/16 09:38:50;;;;;;;3.47;2.90;;;;;;;14.30;77.73;155033.94;5134975;27;20455;-89
2024/02/16 09:41:17;;;;;;;3.77;3.23;;;;;;;14.32;78.39;155039.16;5132268;27;20452;-88
2024/02/16 09:43:43;;;;;;;3.10;2.40;;;;;;;14.32;79.21;155037.91;5112778;27;20465;-89
2024/02/16 09:46:10;;;;;;;2.57;2.03;;;;;;;14.42;78.60;155065.19;5109893;27;20478;-88
2024/02/16 09:48:40;;;;;;;2.53;1.70;;;;;;;14.44;77.24;155069.06;5129230;27;20455;-89
2024/02/16 09:51:07;;;;;;;4.10;2.27;;;;;;;14.51;76.32;155088.53;5133861;27;20470;-88
2024/02/16 09:53:33;;;;;;;2.40;1.83;;;;;;;14.56;76.49;155101.50;5132726;27;20458;-88
2024/02/16 09:56:01;;;;;;;2.57;1.77;;;;;;;14.66;74.56;155124.91;5126065;27;20563;-88
2024/02/16 09:58:28;;;;;;;2.20;2.00;;;;;;;14.77;73.95;155153.50;5135851;27;20457;-89
2024/02/16 10:00:56;;;;;;;2.67;1.90;;;;;;;14.77;73.85;155154.81;5133848;27;20479;-89
2024/02/16 10:03:24;;;;;;;3.93;2.00;;;;;;;14.74;74.58;155145.69;5137066;27;20455;-89
2024/02/16 10:05:52;;;;;;;2.80;1.60;;;;;;;14.83;76.41;155169.06;5097636;27;20504;-88
2024/02/16 10:08:19;;;;;;;2.33;1.67;;;;;;;14.81;77.85;155163.88;5135803;27;20559;-88
2024/02/16 10:10:46;;;;;;;4.60;1.80;;;;;;;14.87;74.19;155179.47;5126038;27;21031;-88
2024/02/16 10:13:13;;;;;;;2.47;1.87;;;;;;;14.98;72.56;155208.06;5128153;27;20499;-88
2024/02/16 10:15:39;;;;;;;2.57;1.77;;;;;;;15.02;72.66;155219.75;5126348;27;20567;-88
2024/02/16 10:18:07;;;;;;;2.30;1.57;;;;;;;15.06;71.57;155230.09;5128174;27;20546;-89
2024/02/16 10:20:34;;;;;;;3.20;1.70;;;;;;;15.08;72.51;155234.03;5104325;27;20774;-88
2024/02/16 10:23:09;;;;;;;2.47;1.50;;;;;;;15.12;72.42;155245.72;5131236;27;20461;-88
2024/02/16 10:25:37;;;;;;;3.10;1.70;;;;;;;15.17;73.11;155257.41;5120569;27;20446;-89
2024/02/16 10:28:06;;;;;;;3.17;1.70;;;;;;;15.18;71.00;155260.00;5125654;27;21375;-88
2024/02/16 10:30:37;;;;;;;1.87;1.50;;;;;;;15.22;69.68;155271.69;5112228;27;20463;-88
2024/02/16 10:33:04;;;;;;;2.57;2.07;;;;;;;15.27;70.57;155284.69;5130931;27;20458;-89
2024/02/16 10:35:33;;;;;;;3.50;2.07;;;;;;;15.35;71.57;155304.22;5126932;27;20467;-89
2024/02/16 10:38:04;;;;;;;3.50;1.80;;;;;;;15.37;68.93;155309.41;5128545;27;20459;-88
2024/02/16 10:40:34;;;;;;;3.23;2.10;;;;;;;15.39;73.16;155313.28;5113037;28;20447;-88
2024/02/16 10:43:05;;;;;;;2.20;1.70;;;;;;;15.30;72.20;155291.22;5129592;27;20516;-89
2024/02/16 10:45:34;;;;;;;4.93;1.50;;;;;;;15.34;72.01;155301.59;5109955;28;20440;-88
2024/02/16 10:48:01;;;;;;;2.90;1.93;;;;;;;15.40;71.33;155317.22;5098322;27;20542;-88
2024/02/16 10:50:28;;;;;;;2.43;2.10;;;;;;;15.35;71.14;155302.91;5110711;28;20454;-88
2024/02/16 10:52:55;;;;;;;3.80;2.17;;;;;;;15.32;70.97;155296.41;5136048;27;20455;-88
2024/02/16 10:55:21;;;;;;;2.63;1.73;;;;;;;15.38;70.23;155311.97;5145492;27;21132;-88
2024/02/16 10:57:50;;;;;;;3.27;1.80;;;;;;;15.44;70.78;155327.59;5123369;27;20461;-88
2024/02/16 11:00:18;;;;;;;2.27;1.50;;;;;;;15.52;71.10;155348.44;5119874;27;20471;-88
2024/02/16 11:02:55;;;;;;;3.07;1.60;;;;;;;15.52;73.84;155348.44;5132088;27;20471;-88
2024/02/16 11:05:33;;;;;;;2.23;1.47;;;;;;;15.51;71.89;155345.88;5118737;28;20533;-88
2024/02/16 11:08:03;;;;;;;3.07;2.10;;;;;;;15.49;70.04;155340.63;5129093;27;20455;-88
2024/02/16 11:10:30;;;;;;;3.43;1.90;;;;;;;15.51;70.61;155345.88;5121290;27;20442;-88
2024/02/16 11:13:04;;;;;;;2.27;1.83;;;;;;;15.47;71.78;155334.13;5111998;27;20462;-88
2024/02/16 11:15:32;;;;;;;3.20;1.67;;;;;;;15.44;69.55;155326.28;5125568;27;20469;-87
2024/02/16 11:17:59;;;;;;;2.30;1.70;;;;;;;15.43;69.96;155325.00;5129263;27;20539;-88
2024/02/16 11:20:26;;;;;;;4.67;2.00;;;;;;;15.46;73.35;155331.56;5121858;27;20482;-88
2024/02/16 11:22:53;;;;;;;4.30;1.90;;;;;;;15.44;70.28;155326.28;5135965;27;20457;-87